createdAt,value
2022-08-03T00:00:41.207Z,22.50
2022-08-03T00:05:40.736Z,22.40
2022-08-03T00:10:58.900Z,22.40
2022-08-03T00:15:56.954Z,22.40
2022-08-03T00:20:56.336Z,22.40
2022-08-03T00:25:54.552Z,22.40
2022-08-03T00:30:52.691Z,22.40
2022-08-03T00:35:51.272Z,22.40
2022-08-03T00:40:50.766Z,22.30
2022-08-03T00:45:51.012Z,22.20
2022-08-03T00:50:49.224Z,22.10
2022-08-03T00:55:53.656Z,22.10
2022-08-03T01:00:52.008Z,22.10
2022-08-03T01:05:56.194Z,22.10
2022-08-03T01:11:07.650Z,22.10
2022-08-03T01:16:10.761Z,22.10
2022-08-03T01:21:13.681Z,22.10
2022-08-03T01:26:36.160Z,22.10
2022-08-03T01:32:59.700Z,22.00
2022-08-03T01:37:04.306Z,22.00
2022-08-03T01:42:06.165Z,22.00
2022-08-03T01:47:07.512Z,22.00
2022-08-03T01:52:07.374Z,22.10
2022-08-03T01:57:06.989Z,22.10
2022-08-03T02:02:19.526Z,22.10
2022-08-03T02:07:27.870Z,22.10
2022-08-03T02:12:27.758Z,22.10
2022-08-03T02:17:39.174Z,22.10
2022-08-03T02:22:41.468Z,22.10
2022-08-03T02:27:44.098Z,22.20
2022-08-03T02:32:48.970Z,22.20
2022-08-03T02:37:52.952Z,22.30
2022-08-03T02:42:54.503Z,22.30
2022-08-03T02:47:56.456Z,22.30
2022-08-03T02:52:57.370Z,22.30
2022-08-03T02:57:56.632Z,22.30
2022-08-03T03:03:04.009Z,22.50
2022-08-03T03:08:02.794Z,22.40
2022-08-03T03:13:02.469Z,22.40
2022-08-03T03:18:02.679Z,22.30
2022-08-03T03:23:01.962Z,22.20
2022-08-03T03:28:00.676Z,22.20
2022-08-03T03:33:01.222Z,22.10
2022-08-03T03:37:59.284Z,22.10
2022-08-03T03:42:57.354Z,22.00
2022-08-03T03:47:55.461Z,22.00
2022-08-03T03:52:54.927Z,22.00
2022-08-03T03:57:53.024Z,22.10
2022-08-03T04:02:51.168Z,21.90
2022-08-03T04:08:17.267Z,21.90
2022-08-03T04:13:18.468Z,21.90
2022-08-03T04:18:18.038Z,22.00
2022-08-03T04:23:19.860Z,22.00
2022-08-03T04:28:30.604Z,22.10
2022-08-03T04:33:33.096Z,22.20
2022-08-03T04:38:38.337Z,22.20
2022-08-03T04:43:39.574Z,22.30
2022-08-03T04:48:37.825Z,22.30
2022-08-03T04:53:38.091Z,22.30
2022-08-03T04:58:36.232Z,22.30
2022-08-03T05:03:34.265Z,22.30
2022-08-03T05:08:32.200Z,22.50
2022-08-03T05:13:31.604Z,22.50
2022-08-03T05:18:29.728Z,22.60
2022-08-03T05:23:27.778Z,22.80
2022-08-03T05:28:25.873Z,22.90
2022-08-03T05:33:25.264Z,23.10
2022-08-03T05:38:24.253Z,23.20
2022-08-03T05:43:27.470Z,23.40
2022-08-03T05:48:26.836Z,23.60
2022-08-03T05:53:24.894Z,23.80
2022-08-03T05:58:23.008Z,23.90
2022-08-03T06:03:21.176Z,24.10
2022-08-03T06:08:21.725Z,24.50
2022-08-03T06:13:19.695Z,24.50
2022-08-03T06:18:17.819Z,24.60
2022-08-03T06:23:17.866Z,24.80
2022-08-03T06:28:51.191Z,25.10
2022-08-03T06:34:22.869Z,25.20
2022-08-03T06:38:54.356Z,25.20
2022-08-03T06:44:03.117Z,25.50
2022-08-03T06:49:02.209Z,25.70
2022-08-03T06:54:00.357Z,25.90
2022-08-03T06:58:59.770Z,26.10
2022-08-03T07:03:57.768Z,26.30
2022-08-03T07:08:59.422Z,26.50
2022-08-03T07:13:59.071Z,26.70
2022-08-03T07:18:57.211Z,26.80
2022-08-03T07:23:55.281Z,27.00
2022-08-03T07:28:53.362Z,27.30
2022-08-03T07:33:52.931Z,27.50
2022-08-03T07:38:51.062Z,27.50
2022-08-03T07:43:49.159Z,27.70
2022-08-03T07:48:47.271Z,27.90
2022-08-03T07:53:48.043Z,28.10
2022-08-03T07:58:46.656Z,28.40
2022-08-03T08:03:53.461Z,28.60
2022-08-03T08:08:53.632Z,28.90
2022-08-03T08:13:51.621Z,29.20
2022-08-03T08:18:49.696Z,29.20
2022-08-03T08:23:57.077Z,29.30
2022-08-03T08:28:57.587Z,29.60
2022-08-03T08:34:04.336Z,29.80
2022-08-03T08:39:03.226Z,29.80
2022-08-03T08:44:02.904Z,29.90
2022-08-03T08:49:04.790Z,30.10
2022-08-03T08:54:04.256Z,30.40
2022-08-03T08:59:03.781Z,30.50
2022-08-03T09:04:01.900Z,30.70
2022-08-03T09:09:00.025Z,31.10
2022-08-03T09:13:58.032Z,31.40
2022-08-03T09:19:12.304Z,31.70
2022-08-03T09:24:25.656Z,31.80
2022-08-03T09:29:32.926Z,32.70
2022-08-03T09:34:32.483Z,33.40
2022-08-03T09:39:42.214Z,34.10
2022-08-03T09:44:42.220Z,34.40
2022-08-03T09:49:43.559Z,35.10
2022-08-03T09:54:42.907Z,36.10
2022-08-03T09:59:41.387Z,37.10
2022-08-03T10:04:50.974Z,37.30
2022-08-03T10:09:56.631Z,37.60
2022-08-03T10:14:55.857Z,36.70
2022-08-03T10:19:55.798Z,36.20
2022-08-03T10:24:57.504Z,36.50
2022-08-03T10:29:57.575Z,36.80
2022-08-03T10:35:18.972Z,37.00
2022-08-03T10:40:47.650Z,36.60
2022-08-03T10:45:43.904Z,36.50
2022-08-03T10:50:44.420Z,36.60
2022-08-03T10:56:01.644Z,36.70
2022-08-03T11:01:00.107Z,36.60
2022-08-03T11:06:17.704Z,36.80
2022-08-03T11:11:29.402Z,36.50
2022-08-03T11:16:28.881Z,36.00
2022-08-03T11:21:59.802Z,36.30
2022-08-03T11:27:19.373Z,36.20
2022-08-03T11:33:07.502Z,36.50
2022-08-03T11:38:24.711Z,36.20
2022-08-03T11:43:45.303Z,36.20
2022-08-03T11:48:45.869Z,35.90
2022-08-03T11:53:47.698Z,35.50
2022-08-03T11:59:19.156Z,36.10
2022-08-03T12:04:08.252Z,36.40
2022-08-03T12:09:17.705Z,36.90
2022-08-03T12:14:49.729Z,37.20
2022-08-03T12:19:43.262Z,37.20
2022-08-03T12:24:43.423Z,37.10
2022-08-03T12:29:41.576Z,37.20
2022-08-03T12:34:49.705Z,37.20
2022-08-03T12:40:02.808Z,37.30
2022-08-03T12:45:20.232Z,37.10
2022-08-03T12:50:26.631Z,37.40
2022-08-03T12:55:57.573Z,37.60
2022-08-03T13:00:56.575Z,37.50
2022-08-03T13:05:54.919Z,37.40
2022-08-03T13:10:54.335Z,37.30
2022-08-03T13:15:52.393Z,37.40
2022-08-03T13:20:50.406Z,37.20
2022-08-03T13:25:55.887Z,36.60
2022-08-03T13:30:55.553Z,36.40
2022-08-03T13:35:53.660Z,36.50
2022-08-03T13:40:53.296Z,36.40
2022-08-03T13:45:56.571Z,36.30
2022-08-03T13:50:57.374Z,36.20
2022-08-03T13:55:55.410Z,36.30
2022-08-03T14:00:53.386Z,36.70
2022-08-03T14:05:51.483Z,37.20
2022-08-03T14:10:51.016Z,37.50
2022-08-03T14:15:49.936Z,37.70
2022-08-03T14:20:51.921Z,37.90
2022-08-03T14:25:55.272Z,37.80
2022-08-03T14:30:54.794Z,37.40
2022-08-03T14:35:53.432Z,37.30
2022-08-03T14:40:51.941Z,37.40
2022-08-03T14:45:53.542Z,37.30
2022-08-03T14:50:52.492Z,37.40
2022-08-03T14:55:51.869Z,37.50
2022-08-03T15:00:52.689Z,37.80
2022-08-03T15:05:50.802Z,37.90
2022-08-03T15:10:49.366Z,37.90
2022-08-03T15:15:48.260Z,37.70
2022-08-03T15:20:49.409Z,37.90
2022-08-03T15:26:02.357Z,37.90
2022-08-03T15:31:07.150Z,37.80
2022-08-03T15:36:07.025Z,37.90
2022-08-03T15:41:05.066Z,37.70
2022-08-03T15:46:28.757Z,37.30
2022-08-03T15:51:26.464Z,37.30
2022-08-03T15:56:24.513Z,37.20
2022-08-03T16:01:26.180Z,37.10
2022-08-03T16:06:29.797Z,36.80
2022-08-03T16:11:35.683Z,36.60
2022-08-03T16:16:34.660Z,36.70
2022-08-03T16:21:41.112Z,36.80
2022-08-03T16:26:48.057Z,37.00
2022-08-03T16:31:51.093Z,37.00
2022-08-03T16:36:49.734Z,37.00
2022-08-03T16:41:54.000Z,37.00
2022-08-03T16:46:59.220Z,36.80
2022-08-03T16:51:57.233Z,36.80
2022-08-03T16:56:58.341Z,36.40
2022-08-03T17:01:56.432Z,36.00
2022-08-03T17:06:55.553Z,36.00
2022-08-03T17:11:53.608Z,36.20
2022-08-03T17:17:00.945Z,36.20
2022-08-03T17:22:03.942Z,36.20
2022-08-03T17:27:08.978Z,36.20
2022-08-03T17:32:10.716Z,35.90
2022-08-03T17:37:50.042Z,35.50
2022-08-03T17:42:32.988Z,35.20
2022-08-03T17:47:42.774Z,34.80
2022-08-03T17:52:48.273Z,34.60
2022-08-03T17:58:01.365Z,34.50
2022-08-03T18:03:18.115Z,34.40
2022-08-03T18:08:24.849Z,34.20
2022-08-03T18:13:25.904Z,34.00
2022-08-03T18:18:33.243Z,33.80
2022-08-03T18:28:50.737Z,33.30
2022-08-03T18:34:19.464Z,33.10
2022-08-03T18:39:11.868Z,32.90
2022-08-03T18:44:52.602Z,32.70
2022-08-03T18:49:41.527Z,32.40
2022-08-03T18:55:02.530Z,32.20
2022-08-03T19:00:12.242Z,32.00
2022-08-03T19:05:12.199Z,31.70
2022-08-03T19:10:15.909Z,31.40
2022-08-03T19:15:17.226Z,31.20
2022-08-03T19:20:36.559Z,31.00
2022-08-03T19:25:39.415Z,30.80
2022-08-03T19:30:40.652Z,30.60
2022-08-03T19:35:54.969Z,30.50
2022-08-03T19:40:58.370Z,30.30
2022-08-03T19:46:06.027Z,30.10
2022-08-03T19:51:12.100Z,30.00
2022-08-03T19:56:12.660Z,29.80
2022-08-03T20:01:21.339Z,29.70
2022-08-03T20:06:23.498Z,29.50
2022-08-03T20:11:28.630Z,29.40
2022-08-03T20:16:27.700Z,29.30
2022-08-03T20:21:31.984Z,29.10
2022-08-03T20:26:31.467Z,29.00
2022-08-03T20:31:32.434Z,28.90
2022-08-03T20:36:35.972Z,28.80
2022-08-03T20:41:36.417Z,28.70
2022-08-03T20:46:50.174Z,28.50
2022-08-03T20:51:54.214Z,28.50
2022-08-03T20:56:53.241Z,28.30
2022-08-03T21:01:51.247Z,28.30
2022-08-03T21:06:57.089Z,28.10
2022-08-03T21:11:59.436Z,28.00
2022-08-03T21:13:05.681Z,33.50
2022-08-03T21:16:59.617Z,27.90
2022-08-03T21:21:58.811Z,27.90
2022-08-03T21:26:59.538Z,27.70
2022-08-03T21:31:59.724Z,27.60
2022-08-03T21:36:58.355Z,27.60
2022-08-03T21:41:57.685Z,27.50
2022-08-03T21:46:57.402Z,27.50
2022-08-03T21:51:58.309Z,27.40
2022-08-03T21:57:04.015Z,27.30
2022-08-03T22:02:02.882Z,27.20
2022-08-03T22:07:02.945Z,27.10
2022-08-03T22:12:02.457Z,27.10
2022-08-03T22:17:03.360Z,27.10
2022-08-03T22:22:06.074Z,27.00
2022-08-03T22:27:23.764Z,26.90
2022-08-03T22:32:22.058Z,26.80
2022-08-03T22:37:22.179Z,26.80
2022-08-03T22:42:22.691Z,26.70
2022-08-03T22:47:22.676Z,26.70
2022-08-03T22:52:22.303Z,26.50
2022-08-03T22:57:23.219Z,26.50
2022-08-03T23:02:23.148Z,26.40
2022-08-03T23:07:23.179Z,26.40
2022-08-03T23:12:24.290Z,26.20
2022-08-03T23:17:24.181Z,26.10
2022-08-03T23:22:30.062Z,26.10
2022-08-03T23:27:32.213Z,26.00
2022-08-03T23:32:31.715Z,25.90
2022-08-03T23:37:30.618Z,25.80
2022-08-03T23:42:30.166Z,25.70
2022-08-03T23:47:46.032Z,25.60
2022-08-03T23:52:53.771Z,25.60
2022-08-03T23:58:04.135Z,25.60
